Time;durP1;ratioP1;P1;durP2;ratioP2;P2;SDS_P1;SDS_P2;PMS_P1;PMS_P2;Temp;Humidity;BMP_temperature;BMP_pressure;BME280_temperature;BME280_humidity;BME280_pressure;Samples;Min_cycle;Max_cycle;Signal;HPM_P1;HPM_P2
2022/12/30 00:00:57;;;;;;;2.60;2.50;;;1.40;99.90;;;;;;6068756;23;20771;-72
2022/12/30 00:03:25;;;;;;;2.22;2.13;;;1.30;99.90;;;;;;6067668;23;20475;-72
2022/12/30 00:05:52;;;;;;;2.25;2.15;;;1.30;99.90;;;;;;6068336;23;20385;-72
2022/12/30 00:11:06;;;;;;;2.50;2.40;;;1.40;99.90;;;;;;6093422;23;20381;-73
2022/12/30 00:33:50;;;;;;;2.70;2.60;;;1.50;99.90;;;;;;6093510;23;20762;-72
2022/12/30 00:36:17;;;;;;;2.67;2.58;;;1.50;99.90;;;;;;6068696;23;20436;-72
2022/12/30 00:38:44;;;;;;;3.10;3.00;;;1.50;99.90;;;;;;6070625;23;20438;-73
2022/12/30 00:43:57;;;;;;;2.53;2.42;;;1.50;99.90;;;;;;6073204;23;20426;-72
2022/12/30 00:46:26;;;;;;;2.65;2.55;;;1.40;99.90;;;;;;6095730;23;20460;-72
2022/12/30 00:57:12;;;;;;;3.40;3.20;;;1.20;99.90;;;;;;6094603;23;20377;-72
2022/12/30 00:59:38;;;;;;;3.20;3.00;;;1.10;99.90;;;;;;6070549;23;20428;-72
2022/12/30 01:02:05;;;;;;;3.08;2.88;;;1.20;99.90;;;;;;6069381;23;20385;-72
2022/12/30 01:04:32;;;;;;;2.90;2.80;;;1.10;99.90;;;;;;6070468;23;20378;-72
2022/12/30 01:06:59;;;;;;;3.08;2.88;;;1.10;99.90;;;;;;6069959;23;20900;-72
2022/12/30 01:09:26;;;;;;;2.73;2.63;;;1.10;99.90;;;;;;6069402;23;20369;-72
2022/12/30 01:12:08;;;;;;;3.53;3.33;;;1.10;99.90;;;;;;6095682;23;20714;-73
2022/12/30 01:14:36;;;;;;;3.50;3.30;;;1.10;99.90;;;;;;6068803;23;20492;-72
2022/12/30 01:17:04;;;;;;;3.33;3.13;;;1.10;99.90;;;;;;6070464;23;20385;-72
2022/12/30 01:19:31;;;;;;;2.53;2.42;;;1.00;99.90;;;;;;6069214;23;20389;-72
2022/12/30 01:21:58;;;;;;;2.40;2.30;;;1.00;99.90;;;;;;6069168;23;20445;-73
2022/12/30 01:24:26;;;;;;;2.77;2.67;;;1.00;99.90;;;;;;6069220;23;20955;-72
2022/12/30 01:26:52;;;;;;;4.47;4.18;;;0.90;99.90;;;;;;6069753;23;20385;-72
2022/12/30 01:29:38;;;;;;;5.40;5.00;;;0.60;99.90;;;;;;6068783;23;20531;-72
2022/12/30 01:32:12;;;;;;;4.80;4.43;;;0.50;99.90;;;;;;6069648;23;20873;-72
2022/12/30 01:34:41;;;;;;;4.13;3.83;;;0.60;99.90;;;;;;6069468;23;20377;-72
2022/12/30 01:37:09;;;;;;;3.40;3.20;;;0.60;99.90;;;;;;6069909;23;20416;-72
2022/12/30 01:39:38;;;;;;;4.18;3.88;;;0.60;99.90;;;;;;6068986;23;20381;-72
2022/12/30 01:42:20;;;;;;;3.35;3.15;;;0.70;99.90;;;;;;6070763;23;20416;-72
2022/12/30 01:45:04;;;;;;;3.30;3.10;;;0.60;99.90;;;;;;6092960;23;20381;-72
2022/12/30 01:47:33;;;;;;;3.90;3.60;;;0.70;99.90;;;;;;6068585;23;20440;-72
2022/12/30 01:50:10;;;;;;;3.47;3.30;;;0.50;99.90;;;;;;6069132;23;20374;-74
2022/12/30 01:52:58;;;;;;;3.70;3.50;;;0.50;99.90;;;;;;6067950;23;20404;-71
2022/12/30 01:55:33;;;;;;;3.20;3.00;;;0.50;99.90;;;;;;6074021;23;20385;-72
2022/12/30 01:58:03;;;;;;;3.53;3.33;;;0.50;99.90;;;;;;6094937;23;20390;-73
2022/12/30 02:00:30;;;;;;;3.45;3.25;;;0.50;99.90;;;;;;6092673;23;20763;-72
2022/12/30 10:54:17;;;;;;;2.22;2.13;;;8.50;75.50;;;;;;6143842;23;20382;-77
2022/12/30 10:56:45;;;;;;;2.47;2.38;;;8.70;76.50;;;;;;6126448;23;20452;-75
2022/12/30 10:59:19;;;;;;;2.25;2.15;;;8.60;75.60;;;;;;6151522;23;20432;-75
2022/12/30 11:01:48;;;;;;;2.65;2.55;;;8.80;75.50;;;;;;6126362;23;20377;-76
2022/12/30 11:04:37;;;;;;;2.85;2.70;;;8.80;73.10;;;;;;6151747;23;20853;-76
2022/12/30 11:07:09;;;;;;;2.40;2.30;;;8.90;73.00;;;;;;6151624;23;20401;-76
2022/12/30 11:09:37;;;;;;;2.42;2.33;;;9.10;73.40;;;;;;6126692;23;20370;-77
2022/12/30 11:15:22;;;;;;;2.60;2.50;;;9.10;72.60;;;;;;6092104;23;20449;-76
2022/12/30 11:17:59;;;;;;;2.60;2.50;;;9.20;72.70;;;;;;6087610;23;20423;-75
2022/12/30 11:20:30;;;;;;;3.35;3.15;;;9.30;71.90;;;;;;6091836;23;20436;-76
2022/12/30 11:23:00;;;;;;;4.18;3.90;;;9.40;71.40;;;;;;6092702;23;20389;-76
2022/12/30 11:25:37;;;;;;;3.97;3.70;;;9.60;72.80;;;;;;6125107;23;20378;-76
2022/12/30 11:28:07;;;;;;;4.10;3.60;;;9.50;71.80;;;;;;6151964;23;20796;-76
2022/12/30 11:30:52;;;;;;;3.58;3.38;;;9.50;72.70;;;;;;6152955;23;20834;-75
2022/12/30 11:33:30;;;;;;;3.00;2.80;;;9.70;72.60;;;;;;6151848;23;20698;-78
2022/12/30 11:36:30;;;;;;;2.33;2.22;;;9.90;70.60;;;;;;6127054;23;20374;-78
2022/12/30 11:39:09;;;;;;;2.70;2.50;;;10.10;70.50;;;;;;6125468;23;20371;-78
2022/12/30 11:41:50;;;;;;;2.30;2.20;;;10.20;68.30;;;;;;6124990;23;20378;-78
2022/12/30 11:44:29;;;;;;;2.67;2.50;;;10.30;68.30;;;;;;6152458;23;20858;-76
2022/12/30 11:47:01;;;;;;;2.25;2.15;;;10.30;66.60;;;;;;6150831;23;20381;-79
2022/12/30 11:49:34;;;;;;;2.03;1.92;;;10.10;67.40;;;;;;6152396;23;20374;-76
2022/12/30 11:52:04;;;;;;;1.90;1.80;;;10.20;68.30;;;;;;6150699;23;20374;-76
2022/12/30 11:54:37;;;;;;;1.92;1.77;;;10.30;67.20;;;;;;6151813;23;20385;-77
2022/12/30 11:57:17;;;;;;;1.85;1.75;;;10.50;65.40;;;;;;6125498;23;20366;-78
2022/12/30 11:59:49;;;;;;;1.63;1.52;;;10.30;64.00;;;;;;6125735;23;20432;-77
2022/12/30 12:02:25;;;;;;;1.75;1.65;;;10.40;66.40;;;;;;6126565;23;20374;-77
2022/12/30 12:04:53;;;;;;;1.58;1.48;;;10.70;65.50;;;;;;6125608;23;20401;-77
2022/12/30 12:07:25;;;;;;;1.80;1.70;;;10.80;63.30;;;;;;6126615;23;20763;-77
2022/12/30 12:09:59;;;;;;;1.53;1.43;;;11.00;63.40;;;;;;6125973;23;20374;-76
2022/12/30 12:12:34;;;;;;;1.90;1.80;;;11.20;61.60;;;;;;6126343;23;20390;-77
2022/12/30 12:15:23;;;;;;;1.90;1.80;;;11.40;62.40;;;;;;6151484;23;20438;-77
2022/12/30 12:17:59;;;;;;;2.20;2.10;;;11.50;61.00;;;;;;6125454;23;20856;-76
2022/12/30 12:20:48;;;;;;;1.98;1.88;;;11.80;61.90;;;;;;6126731;23;20374;-76
2022/12/30 12:23:30;;;;;;;1.88;1.77;;;12.00;60.90;;;;;;6126172;23;20362;-76
2022/12/30 12:26:22;;;;;;;1.90;1.80;;;12.10;61.00;;;;;;6151286;23;20386;-76
2022/12/30 12:28:52;;;;;;;2.03;1.92;;;12.20;60.70;;;;;;6126906;23;20433;-77
2022/12/30 12:31:26;;;;;;;2.10;2.00;;;12.20;59.70;;;;;;6149375;23;20738;-76
2022/12/30 12:34:17;;;;;;;1.70;1.60;;;12.30;59.40;;;;;;6126069;23;20381;-76
2022/12/30 12:37:21;;;;;;;1.60;1.50;;;12.20;59.40;;;;;;6125061;23;20378;-78
2022/12/30 12:40:02;;;;;;;2.00;1.90;;;12.10;59.00;;;;;;6125182;23;20841;-76
2022/12/30 12:42:48;;;;;;;1.83;1.73;;;12.00;60.10;;;;;;6124892;23;20374;-78
2022/12/30 12:45:58;;;;;;;2.30;2.20;;;11.90;61.80;;;;;;6127551;23;20755;-76
2022/12/30 12:48:28;;;;;;;1.93;1.83;;;11.80;60.10;;;;;;6151155;23;20710;-77
2022/12/30 12:51:08;;;;;;;2.50;2.30;;;11.80;61.20;;;;;;6150534;23;20437;-76
2022/12/30 12:53:45;;;;;;;2.30;2.20;;;11.90;61.80;;;;;;6149700;23;20731;-78
2022/12/30 12:56:32;;;;;;;2.45;2.35;;;12.00;61.50;;;;;;6125728;23;20746;-77
2022/12/30 12:59:30;;;;;;;2.80;2.60;;;12.10;61.50;;;;;;6152345;23;20377;-78
2022/12/30 13:02:06;;;;;;;2.25;2.15;;;11.90;62.40;;;;;;6125666;23;20370;-78
2022/12/30 13:05:13;;;;;;;2.40;2.30;;;11.90;62.40;;;;;;6129114;23;20393;-78
2022/12/30 13:07:46;;;;;;;2.40;2.30;;;11.50;61.80;;;;;;6125666;23;20392;-78
2022/12/30 13:10:44;;;;;;;2.53;2.33;;;11.50;62.90;;;;;;6130551;23;20834;-78
2022/12/30 13:13:38;;;;;;;2.22;2.13;;;11.50;63.00;;;;;;6151208;23;20872;-78
2022/12/30 13:16:07;;;;;;;2.03;1.93;;;11.60;63.60;;;;;;6126465;23;20444;-76
2022/12/30 13:18:38;;;;;;;2.30;2.20;;;11.80;63.20;;;;;;6126056;23;20377;-78
2022/12/30 13:21:09;;;;;;;2.55;2.45;;;11.90;62.40;;;;;;6126193;23;20450;-77
2022/12/30 13:23:45;;;;;;;2.20;2.10;;;11.80;61.70;;;;;;6126196;23;20369;-78
2022/12/30 13:26:12;;;;;;;2.33;2.22;;;11.80;62.60;;;;;;6125464;23;20429;-78
2022/12/30 13:28:40;;;;;;;2.28;2.15;;;11.80;62.70;;;;;;6126833;23;20682;-77
2022/12/30 13:31:45;;;;;;;2.25;2.15;;;11.80;61.80;;;;;;6126519;23;20370;-78
2022/12/30 13:34:46;;;;;;;2.42;2.33;;;11.90;62.30;;;;;;6150306;23;20732;-78
2022/12/30 13:37:26;;;;;;;2.35;2.25;;;11.90;61.80;;;;;;6151560;23;20362;-78
2022/12/30 13:39:56;;;;;;;2.30;2.20;;;11.90;61.70;;;;;;6125198;23;20435;-78
2022/12/30 13:43:11;;;;;;;2.30;2.20;;;12.00;61.60;;;;;;6126122;23;20406;-77
2022/12/30 13:45:53;;;;;;;3.08;2.88;;;12.10;61.40;;;;;;6114963;23;20373;-77
2022/12/30 13:48:22;;;;;;;2.90;2.70;;;12.10;61.60;;;;;;6152631;23;20838;-76
2022/12/30 13:51:05;;;;;;;2.78;2.65;;;12.00;61.00;;;;;;6128272;23;20374;-78
2022/12/30 13:53:41;;;;;;;2.28;2.17;;;11.50;61.60;;;;;;6126480;23;20405;-78
2022/12/30 13:56:09;;;;;;;2.43;2.30;;;11.40;62.60;;;;;;6128114;23;20549;-74
2022/12/30 13:58:48;;;;;;;2.47;2.35;;;11.50;63.00;;;;;;6126934;23;20429;-78
2022/12/30 14:01:31;;;;;;;2.10;2.00;;;11.60;62.60;;;;;;6126741;23;20433;-76
2022/12/30 14:04:10;;;;;;;2.05;1.95;;;11.70;62.10;;;;;;6154108;23;20380;-76
2022/12/30 14:06:49;;;;;;;2.10;2.00;;;11.60;61.20;;;;;;6126827;23;20373;-76
2022/12/30 14:09:20;;;;;;;3.00;2.80;;;11.70;61.20;;;;;;6126795;23;20378;-76
2022/12/30 14:12:30;;;;;;;2.97;2.77;;;11.20;63.70;;;;;;6153603;23;20414;-77
2022/12/30 14:15:00;;;;;;;3.20;3.00;;;10.90;65.00;;;;;;6145180;23;20711;-75
2022/12/30 14:17:33;;;;;;;2.83;2.72;;;10.90;66.10;;;;;;6126590;23;20680;-76
2022/12/30 14:20:28;;;;;;;3.80;3.57;;;10.80;67.00;;;;;;6151487;23;20374;-76
2022/12/30 14:22:59;;;;;;;2.95;2.75;;;10.70;68.40;;;;;;6125712;23;20389;-76
2022/12/30 14:25:26;;;;;;;3.30;3.10;;;10.70;67.50;;;;;;6153134;23;20747;-76
2022/12/30 14:28:05;;;;;;;3.50;3.30;;;10.60;68.00;;;;;;6126880;23;20385;-76
2022/12/30 14:30:51;;;;;;;3.05;2.95;;;10.70;68.80;;;;;;6127867;23;20433;-75
2022/12/30 14:33:24;;;;;;;3.28;3.08;;;10.70;68.50;;;;;;6151157;23;20453;-76
2022/12/30 14:36:17;;;;;;;3.45;3.25;;;10.80;68.80;;;;;;6127928;23;20428;-76
2022/12/30 14:38:50;;;;;;;3.33;3.13;;;10.60;68.60;;;;;;6123810;23;20453;-78
2022/12/30 14:41:35;;;;;;;3.30;3.10;;;10.60;69.10;;;;;;6153075;23;20397;-75
2022/12/30 14:44:07;;;;;;;3.80;3.53;;;10.70;68.70;;;;;;6151392;23;20400;-76
2022/12/30 14:46:45;;;;;;;3.50;3.30;;;10.70;68.90;;;;;;6127651;23;20426;-78
2022/12/30 14:49:12;;;;;;;3.35;3.15;;;10.80;68.60;;;;;;6151798;23;20676;-76
2022/12/30 14:51:46;;;;;;;3.50;3.30;;;11.00;66.80;;;;;;6127462;23;20869;-76
2022/12/30 14:54:22;;;;;;;3.85;3.65;;;11.00;65.90;;;;;;6151867;23;20362;-76
2022/12/30 14:57:11;;;;;;;3.38;3.17;;;11.00;67.20;;;;;;6126542;23;20385;-76
2022/12/30 14:59:50;;;;;;;3.20;3.03;;;11.00;66.40;;;;;;6126925;23;20374;-76
2022/12/30 15:02:17;;;;;;;3.10;3.00;;;10.90;66.10;;;;;;6151239;23;20369;-76
2022/12/30 15:04:45;;;;;;;3.05;2.90;;;10.90;66.60;;;;;;6152675;23;20382;-75
2022/12/30 15:07:19;;;;;;;3.33;3.13;;;10.80;67.20;;;;;;6152108;23;20390;-76
2022/12/30 15:09:46;;;;;;;3.30;3.10;;;10.60;68.70;;;;;;6152532;23;20757;-76
2022/12/30 15:12:14;;;;;;;2.75;2.65;;;10.50;69.40;;;;;;6125987;23;20374;-76
2022/12/30 15:14:46;;;;;;;3.28;3.08;;;10.50;70.40;;;;;;6127151;23;20370;-76
2022/12/30 15:17:28;;;;;;;3.22;3.10;;;10.40;71.10;;;;;;6126486;23;20370;-76
2022/12/30 15:19:55;;;;;;;3.28;3.08;;;10.40;71.70;;;;;;6126203;23;20370;-77
2022/12/30 15:22:28;;;;;;;3.38;3.17;;;10.30;72.10;;;;;;6126977;23;20366;-77
2022/12/30 15:24:55;;;;;;;2.70;2.60;;;10.20;73.00;;;;;;6126167;23;20676;-76
2022/12/30 15:27:31;;;;;;;3.03;2.83;;;10.30;73.20;;;;;;6152120;23;20382;-76
2022/12/30 15:30:14;;;;;;;3.50;3.25;;;10.20;73.80;;;;;;6101491;23;20763;-75
2022/12/30 15:32:40;;;;;;;3.10;2.90;;;10.10;75.60;;;;;;6152917;23;20425;-75
2022/12/30 15:35:25;;;;;;;3.88;3.67;;;9.90;76.30;;;;;;6125881;23;20440;-78
2022/12/30 15:37:52;;;;;;;3.22;3.03;;;9.80;77.00;;;;;;6126590;23;20374;-78
2022/12/30 15:40:27;;;;;;;3.25;3.05;;;9.80;77.40;;;;;;6127951;23;20445;-79
2022/12/30 15:42:58;;;;;;;3.63;3.42;;;9.70;78.00;;;;;;6126584;23;20412;-79
2022/12/30 15:45:42;;;;;;;3.50;3.20;;;9.50;78.80;;;;;;6126053;23;20366;-78
2022/12/30 15:48:32;;;;;;;3.50;3.30;;;9.40;79.60;;;;;;6126514;23;20465;-79
2022/12/30 15:51:08;;;;;;;3.75;3.45;;;9.20;81.50;;;;;;6152490;23;20374;-78
2022/12/30 15:53:37;;;;;;;3.58;3.38;;;9.00;83.70;;;;;;6150250;23;20393;-78
2022/12/30 15:56:11;;;;;;;4.97;4.57;;;8.90;84.60;;;;;;6127308;23;20425;-78
2022/12/30 15:58:52;;;;;;;4.57;4.18;;;8.60;90.70;;;;;;6127366;23;20679;-78
2022/12/30 16:01:26;;;;;;;4.10;3.90;;;8.40;90.90;;;;;;6126875;23;20467;-76
2022/12/30 16:03:58;;;;;;;3.72;3.53;;;8.30;91.30;;;;;;6152077;23;20370;-76
2022/12/30 16:06:26;;;;;;;5.20;4.78;;;8.30;91.30;;;;;;6126527;23;21027;-76
2022/12/30 16:08:54;;;;;;;5.10;4.80;;;8.20;91.00;;;;;;6125802;23;20421;-76
2022/12/30 16:11:33;;;;;;;5.78;5.28;;;8.10;91.40;;;;;;6126542;23;20393;-77
2022/12/30 16:14:38;;;;;;;5.00;4.70;;;8.00;91.70;;;;;;6151247;23;20453;-76
2022/12/30 16:17:24;;;;;;;5.22;4.93;;;7.80;92.90;;;;;;6125980;23;20897;-77
2022/12/30 16:19:51;;;;;;;3.90;3.70;;;7.70;92.60;;;;;;6126767;23;20370;-76
2022/12/30 16:22:24;;;;;;;4.30;4.03;;;7.60;92.60;;;;;;6125806;23;20818;-77
2022/12/30 16:25:19;;;;;;;4.00;3.80;;;7.60;92.70;;;;;;6126314;23;20366;-76
2022/12/30 16:27:47;;;;;;;4.80;4.50;;;7.50;92.80;;;;;;6126059;23;20748;-77
2022/12/30 16:30:32;;;;;;;4.78;4.47;;;7.40;93.30;;;;;;6152268;23;20370;-77
2022/12/30 16:33:14;;;;;;;4.93;4.63;;;7.30;93.50;;;;;;6151103;23;20366;-77
2022/12/30 16:35:57;;;;;;;5.25;4.95;;;7.20;93.70;;;;;;6126123;23;20405;-77
2022/12/30 16:38:52;;;;;;;5.38;4.97;;;7.10;93.90;;;;;;6152985;23;20695;-77
2022/12/30 16:41:22;;;;;;;5.07;4.78;;;7.00;95.30;;;;;;6118415;23;20422;-77
2022/12/30 16:43:54;;;;;;;4.70;4.40;;;6.90;95.40;;;;;;6126717;23;20707;-78
2022/12/30 16:46:26;;;;;;;5.35;5.05;;;6.80;95.50;;;;;;6151268;23;20378;-77
2022/12/30 16:48:54;;;;;;;4.80;4.50;;;6.70;96.60;;;;;;6151999;23;20458;-77
2022/12/30 16:51:43;;;;;;;4.45;4.25;;;6.50;97.20;;;;;;6125949;23;20734;-77
2022/12/30 16:54:17;;;;;;;4.40;4.10;;;6.40;97.70;;;;;;6125671;23;20433;-76
2022/12/30 16:56:45;;;;;;;4.60;4.30;;;6.40;98.50;;;;;;6152021;23;20853;-77
2022/12/30 16:59:12;;;;;;;4.40;4.10;;;6.40;98.30;;;;;;6125933;23;20417;-77
2022/12/30 17:01:46;;;;;;;4.45;4.25;;;6.20;99.90;;;;;;6126664;23;20449;-77
2022/12/30 17:04:17;;;;;;;4.18;3.97;;;6.10;99.90;;;;;;6125696;23;20378;-77
2022/12/30 17:06:44;;;;;;;3.70;3.50;;;6.10;99.90;;;;;;6126244;23;20389;-77
2022/12/30 17:09:12;;;;;;;4.70;4.40;;;6.10;99.90;;;;;;6125072;23;20842;-77
2022/12/30 17:11:41;;;;;;;5.63;5.33;;;6.10;99.90;;;;;;6127000;23;20429;-77
2022/12/30 17:14:14;;;;;;;5.30;5.00;;;5.90;99.90;;;;;;6125310;23;20386;-78
2022/12/30 17:16:41;;;;;;;4.78;4.47;;;5.90;99.90;;;;;;6152547;23;20424;-77
2022/12/30 17:19:08;;;;;;;4.68;4.38;;;5.70;99.90;;;;;;6127242;23;20366;-76
2022/12/30 17:21:42;;;;;;;4.43;4.15;;;5.60;99.90;;;;;;6128956;23;20389;-77
2022/12/30 17:24:14;;;;;;;5.50;5.20;;;5.50;99.90;;;;;;6152570;23;20397;-76
2022/12/30 17:26:43;;;;;;;4.55;4.28;;;5.40;99.90;;;;;;6128103;23;20378;-76
2022/12/30 17:29:10;;;;;;;5.38;5.07;;;5.30;99.90;;;;;;6127309;23;20382;-77
2022/12/30 17:31:41;;;;;;;4.80;4.50;;;5.20;99.90;;;;;;6127950;23;20854;-76
2022/12/30 17:34:10;;;;;;;4.13;3.88;;;5.20;99.90;;;;;;6127581;23;20404;-77
2022/12/30 17:36:38;;;;;;;4.83;4.53;;;5.20;99.90;;;;;;6128119;23;20739;-77
2022/12/30 17:39:05;;;;;;;5.30;5.00;;;5.20;99.90;;;;;;6127279;23;20389;-77
2022/12/30 17:41:32;;;;;;;4.80;4.50;;;5.20;99.90;;;;;;6127900;23;20385;-77
2022/12/30 17:44:00;;;;;;;5.50;5.18;;;5.20;99.90;;;;;;6127917;23;20854;-77
2022/12/30 17:46:27;;;;;;;4.60;4.40;;;5.10;99.90;;;;;;6127816;23;20366;-77
2022/12/30 17:48:55;;;;;;;5.03;4.72;;;5.10;99.90;;;;;;6127792;23;20433;-78
2022/12/30 17:51:24;;;;;;;5.10;4.80;;;5.10;99.90;;;;;;6127494;23;20381;-77
2022/12/30 17:53:56;;;;;;;5.00;4.70;;;5.00;99.90;;;;;;6127787;23;20780;-77
2022/12/30 17:56:25;;;;;;;6.07;5.67;;;5.00;99.90;;;;;;6152572;23;20435;-77
2022/12/30 17:58:53;;;;;;;5.82;5.43;;;5.00;99.90;;;;;;6127956;23;20382;-77
2022/12/30 18:01:30;;;;;;;5.15;4.75;;;4.90;99.90;;;;;;6128155;23;20435;-77
2022/12/30 18:03:59;;;;;;;4.85;4.55;;;4.80;99.90;;;;;;6128343;23;20755;-76
2022/12/30 18:06:26;;;;;;;5.00;4.70;;;4.50;99.90;;;;;;6127202;23;20389;-77
2022/12/30 18:08:53;;;;;;;4.95;4.57;;;4.50;99.90;;;;;;6127747;23;20423;-76
2022/12/30 18:11:20;;;;;;;4.93;4.63;;;4.50;99.90;;;;;;6152082;23;20386;-77
2022/12/30 18:13:48;;;;;;;4.22;4.03;;;4.40;99.90;;;;;;6127961;23;20378;-77
2022/12/30 18:16:19;;;;;;;4.55;4.28;;;4.40;99.90;;;;;;6126686;23;20702;-77
2022/12/30 18:18:46;;;;;;;4.80;4.40;;;4.30;99.90;;;;;;6153431;23;20402;-76
2022/12/30 18:21:15;;;;;;;5.93;5.53;;;4.30;99.90;;;;;;6126555;23;20374;-77
2022/12/30 18:23:44;;;;;;;6.28;5.88;;;4.00;99.90;;;;;;6128047;23;20381;-76
2022/12/30 18:26:14;;;;;;;5.70;5.30;;;4.00;99.90;;;;;;6126989;23;20467;-76
2022/12/30 18:28:41;;;;;;;5.80;5.40;;;4.00;99.90;;;;;;6127242;23;20439;-77
2022/12/30 18:31:14;;;;;;;5.70;5.40;;;4.00;99.90;;;;;;6152285;23;20374;-77
2022/12/30 18:33:42;;;;;;;5.38;5.07;;;3.90;99.90;;;;;;6153433;23;20437;-79
2022/12/30 18:36:11;;;;;;;5.35;5.05;;;4.00;99.90;;;;;;6152009;23;20440;-77
2022/12/30 18:38:38;;;;;;;5.80;5.40;;;4.00;99.90;;;;;;6128027;23;20374;-77
2022/12/30 18:41:10;;;;;;;5.20;4.90;;;3.90;99.90;;;;;;6127738;23;20382;-78
2022/12/30 18:43:37;;;;;;;5.45;5.13;;;3.90;99.90;;;;;;6127189;23;20948;-76
2022/12/30 18:46:05;;;;;;;5.00;4.70;;;4.00;99.90;;;;;;6153357;23;20428;-78
2022/12/30 18:48:33;;;;;;;5.30;5.00;;;3.90;99.90;;;;;;6126025;23;20386;-77
2022/12/30 18:51:01;;;;;;;5.32;5.03;;;4.00;99.90;;;;;;6127860;23;20366;-77
2022/12/30 18:53:28;;;;;;;4.93;4.63;;;3.90;99.90;;;;;;6125972;23;20475;-76
2022/12/30 18:56:15;;;;;;;5.38;5.07;;;3.90;99.90;;;;;;6127760;23;20408;-77
2022/12/30 18:58:42;;;;;;;5.35;5.05;;;3.90;99.90;;;;;;6150868;23;20413;-77
2022/12/30 19:01:14;;;;;;;6.03;5.63;;;3.80;99.90;;;;;;6127402;23;20452;-77
2022/12/30 19:03:41;;;;;;;6.17;5.77;;;3.80;99.90;;;;;;6126812;23;20446;-77
2022/12/30 19:06:08;;;;;;;6.30;5.90;;;3.70;99.90;;;;;;6152728;23;20374;-77
2022/12/30 19:08:37;;;;;;;5.20;4.90;;;3.60;99.90;;;;;;6102487;23;20401;-77
2022/12/30 19:11:06;;;;;;;4.07;3.78;;;3.60;99.90;;;;;;6127331;23;21009;-78
2022/12/30 19:13:34;;;;;;;4.10;3.80;;;3.50;99.90;;;;;;6126764;23;20838;-77
2022/12/30 19:16:07;;;;;;;3.95;3.75;;;3.40;99.90;;;;;;6127311;23;20406;-77
2022/12/30 19:18:34;;;;;;;3.55;3.35;;;3.30;99.90;;;;;;6152152;23;20454;-76
2022/12/30 19:21:06;;;;;;;3.80;3.50;;;3.20;99.90;;;;;;6126854;23;20381;-77
2022/12/30 19:23:33;;;;;;;3.58;3.38;;;3.20;99.90;;;;;;6126244;23;20845;-76
2022/12/30 19:26:00;;;;;;;4.10;3.80;;;3.20;99.90;;;;;;6126940;23;20377;-77
2022/12/30 19:28:29;;;;;;;3.40;3.20;;;3.10;99.90;;;;;;6126486;23;20390;-77
2022/12/30 19:30:56;;;;;;;3.78;3.58;;;3.10;99.90;;;;;;6127316;23;21062;-77
2022/12/30 19:33:23;;;;;;;4.30;4.10;;;3.00;99.90;;;;;;6151723;23;20397;-77
2022/12/30 19:35:50;;;;;;;4.32;4.07;;;3.00;99.90;;;;;;6127310;23;20404;-77
2022/12/30 19:38:18;;;;;;;4.20;4.00;;;3.00;99.90;;;;;;6102155;23;20405;-77
2022/12/30 19:40:45;;;;;;;4.38;4.10;;;3.00;99.90;;;;;;6152032;23;20366;-77
2022/12/30 19:43:12;;;;;;;4.43;4.18;;;3.00;99.90;;;;;;6127034;23;20378;-77
2022/12/30 19:45:40;;;;;;;4.40;4.20;;;3.00;99.90;;;;;;6125849;23;20374;-76
2022/12/30 19:48:09;;;;;;;5.32;4.93;;;2.90;99.90;;;;;;6127517;23;20805;-77
2022/12/30 19:50:35;;;;;;;4.60;4.30;;;2.60;99.90;;;;;;6125880;23;20680;-76
2022/12/30 19:53:06;;;;;;;4.20;3.97;;;2.60;99.90;;;;;;6152592;23;20429;-77
2022/12/30 19:55:33;;;;;;;5.15;4.75;;;2.70;99.90;;;;;;6125989;23;20490;-78
2022/12/30 19:58:00;;;;;;;5.22;4.93;;;2.70;99.90;;;;;;6126770;23;20761;-77
2022/12/30 20:00:27;;;;;;;5.30;5.00;;;2.70;99.90;;;;;;6126177;23;20684;-77
2022/12/30 20:02:54;;;;;;;5.60;5.20;;;2.70;99.90;;;;;;6126653;23;20373;-77
2022/12/30 20:05:21;;;;;;;5.40;5.00;;;2.70;99.90;;;;;;6152611;23;20389;-77
2022/12/30 20:07:48;;;;;;;5.10;4.80;;;2.60;99.90;;;;;;6125851;23;20385;-77
2022/12/30 20:10:15;;;;;;;5.10;4.80;;;2.60;99.90;;;;;;6152426;23;20389;-77
2022/12/30 20:13:02;;;;;;;4.88;4.57;;;2.60;99.90;;;;;;6151645;23;20377;-77
2022/12/30 20:15:29;;;;;;;5.05;4.75;;;2.60;99.90;;;;;;6127050;23;20386;-77
2022/12/30 20:17:56;;;;;;;5.30;5.00;;;2.60;99.90;;;;;;6125783;23;20420;-77
2022/12/30 20:20:23;;;;;;;6.55;6.10;;;2.60;99.90;;;;;;6126526;23;20846;-77
2022/12/30 20:22:52;;;;;;;4.90;4.60;;;2.60;99.90;;;;;;6151309;23;20408;-77
2022/12/30 20:25:19;;;;;;;4.87;4.57;;;2.60;99.90;;;;;;6152445;23;20439;-77
2022/12/30 20:27:47;;;;;;;8.13;7.43;;;2.50;99.90;;;;;;6125499;23;20374;-78
2022/12/30 20:30:13;;;;;;;6.70;6.20;;;2.40;99.90;;;;;;6126711;23;20467;-77
2022/12/30 20:32:41;;;;;;;9.48;8.77;;;2.30;99.90;;;;;;6151437;23;20420;-77
2022/12/30 20:35:08;;;;;;;7.20;6.70;;;2.20;99.90;;;;;;6126566;23;20370;-77
2022/12/30 20:37:35;;;;;;;7.32;6.82;;;2.30;99.90;;;;;;6151805;23;20378;-77
2022/12/30 20:40:03;;;;;;;7.20;6.70;;;2.30;99.90;;;;;;6125343;23;20435;-77
2022/12/30 20:42:29;;;;;;;7.10;6.60;;;2.30;99.90;;;;;;6152597;23;20374;-78
2022/12/30 20:44:56;;;;;;;6.82;6.43;;;2.40;99.90;;;;;;6151452;23;20758;-78
2022/12/30 20:47:23;;;;;;;7.00;6.60;;;2.40;99.90;;;;;;6126152;23;20374;-77
2022/12/30 20:49:50;;;;;;;8.20;7.60;;;2.50;99.90;;;;;;6125248;23;20444;-77
2022/12/30 20:52:17;;;;;;;7.13;6.70;;;2.50;99.90;;;;;;6152708;23;20425;-76
2022/12/30 20:54:50;;;;;;;6.60;6.20;;;2.50;99.90;;;;;;6128662;23;20888;-77
2022/12/30 20:57:17;;;;;;;6.10;5.70;;;2.60;99.90;;;;;;6154348;23;20377;-77
2022/12/30 20:59:44;;;;;;;5.90;5.50;;;2.60;99.90;;;;;;6127063;23;20420;-76
2022/12/30 21:02:11;;;;;;;4.93;4.63;;;2.50;99.90;;;;;;6128214;23;20366;-75
2022/12/30 21:04:38;;;;;;;4.95;4.65;;;2.50;99.90;;;;;;6128181;23;20376;-78
2022/12/30 21:07:05;;;;;;;5.15;4.85;;;2.40;99.90;;;;;;6127570;23;20452;-77
2022/12/30 21:09:32;;;;;;;6.05;5.65;;;2.30;99.90;;;;;;6153395;23;20977;-77
2022/12/30 21:12:00;;;;;;;7.07;6.47;;;2.20;99.90;;;;;;6127439;23;20378;-78
2022/12/30 21:14:27;;;;;;;7.10;6.60;;;2.20;99.90;;;;;;6128473;23;20377;-78
2022/12/30 21:16:54;;;;;;;6.45;6.05;;;2.30;99.90;;;;;;6127904;23;20370;-78
2022/12/30 21:19:20;;;;;;;6.07;5.68;;;2.30;99.90;;;;;;6127358;23;20408;-77
2022/12/30 21:21:51;;;;;;;5.53;5.22;;;2.40;99.90;;;;;;6128295;23;20381;-76
2022/12/30 21:24:18;;;;;;;6.18;5.78;;;2.40;99.90;;;;;;6128339;23;20377;-76
2022/12/30 21:26:45;;;;;;;6.07;5.68;;;2.50;99.90;;;;;;6127214;23;20444;-77
2022/12/30 21:29:12;;;;;;;6.25;5.85;;;2.50;99.90;;;;;;6154261;23;20370;-77
2022/12/30 21:31:40;;;;;;;7.95;7.38;;;2.60;99.90;;;;;;6153496;23;20482;-78
2022/12/30 21:34:09;;;;;;;8.27;7.68;;;2.60;99.90;;;;;;6152752;23;20412;-77
2022/12/30 21:36:36;;;;;;;8.30;7.70;;;2.60;99.90;;;;;;6127995;23;20454;-77
2022/12/30 22:02:44;;;;;;;6.00;5.60;;;2.40;99.90;;;;;;6152760;23;20901;-77
2022/12/30 22:05:26;;;;;;;6.80;6.30;;;2.30;99.90;;;;;;6127364;23;20401;-75
2022/12/30 22:07:58;;;;;;;7.20;6.70;;;2.30;99.90;;;;;;6127510;23;20851;-76
2022/12/30 22:10:38;;;;;;;7.23;6.73;;;2.30;99.90;;;;;;6127302;23;20861;-76
2022/12/30 22:13:07;;;;;;;8.03;7.43;;;2.20;99.90;;;;;;6127373;23;20382;-77
2022/12/30 22:15:35;;;;;;;10.40;9.70;;;2.20;99.90;;;;;;6152416;23;20795;-76
2022/12/30 22:18:02;;;;;;;11.88;11.00;;;2.30;99.90;;;;;;6126982;23;20762;-79
2022/12/30 22:20:35;;;;;;;9.82;9.13;;;2.30;99.90;;;;;;6152578;23;20440;-78
2022/12/30 22:23:05;;;;;;;7.68;7.18;;;2.30;99.90;;;;;;6153206;23;20382;-79
2022/12/30 22:25:36;;;;;;;8.10;7.50;;;2.30;99.90;;;;;;6124569;23;20427;-79
2022/12/30 22:28:05;;;;;;;8.52;7.93;;;2.30;99.90;;;;;;6126821;23;20378;-79
2022/12/30 22:30:33;;;;;;;8.77;8.10;;;2.20;99.90;;;;;;6125991;23;20399;-80
2022/12/30 22:33:00;;;;;;;8.63;8.02;;;2.10;99.90;;;;;;6126844;23;20374;-80
2022/12/30 22:35:30;;;;;;;8.88;8.27;;;1.90;99.90;;;;;;6152575;23;20461;-79
2022/12/30 22:37:58;;;;;;;9.20;8.50;;;1.80;99.90;;;;;;6128133;23;20413;-79
2022/12/30 22:40:26;;;;;;;7.80;7.30;;;1.80;99.90;;;;;;6126605;23;20381;-78
2022/12/30 22:42:54;;;;;;;9.07;8.48;;;1.80;99.90;;;;;;6128148;23;20385;-79
2022/12/30 22:45:22;;;;;;;8.20;7.60;;;1.80;99.90;;;;;;6125490;23;20424;-78
2022/12/30 22:47:49;;;;;;;8.02;7.50;;;1.80;99.90;;;;;;6127329;23;20794;-77
2022/12/30 22:50:18;;;;;;;8.70;8.10;;;1.80;99.90;;;;;;6126074;23;20390;-79
2022/12/30 22:52:46;;;;;;;8.32;7.72;;;1.80;99.90;;;;;;6127134;23;20444;-79
2022/12/30 22:55:15;;;;;;;8.57;7.97;;;1.80;99.90;;;;;;6152711;23;20699;-78
2022/12/30 22:57:42;;;;;;;9.80;9.00;;;1.80;99.90;;;;;;6150900;23;20436;-78
2022/12/30 23:00:11;;;;;;;8.95;8.25;;;1.90;99.90;;;;;;6152543;23;20386;-79
2022/12/30 23:02:37;;;;;;;8.80;8.10;;;1.80;99.90;;;;;;6123164;23;20747;-78
2022/12/30 23:05:06;;;;;;;8.65;7.97;;;1.80;99.90;;;;;;6151545;23;20374;-77
2022/12/30 23:07:37;;;;;;;7.82;7.22;;;1.70;99.90;;;;;;6125564;23;20401;-79
2022/12/30 23:10:05;;;;;;;7.22;6.72;;;1.70;99.90;;;;;;6126681;23;20437;-78
2022/12/30 23:18:03;;;;;;;6.93;6.53;;;1.50;99.90;;;;;;6151615;23;20366;-77
2022/12/30 23:20:30;;;;;;;7.22;6.78;;;1.60;99.90;;;;;;6126641;23;20468;-77